Time;durP1;ratioP1;P1;durP2;ratioP2;P2;SDS_P1;SDS_P2;PMS_P1;PMS_P2;Temp;Humidity;BMP_temperature;BMP_pressure;BME280_temperature;BME280_humidity;BME280_pressure;Samples;Min_cycle;Max_cycle;Signal;HPM_P1;HPM_P2
2021/07/10 00:01:23;;;;;;;7.22;5.28;;;;;;;19.50;45.71;101566.47;3597080;39;20455;-70
2021/07/10 00:03:52;;;;;;;7.03;5.55;;;;;;;19.49;46.33;101573.94;3593964;40;20145;-70
2021/07/10 00:06:20;;;;;;;7.20;5.22;;;;;;;19.48;45.80;101569.41;3588807;40;20040;-70
2021/07/10 00:08:49;;;;;;;6.03;4.88;;;;;;;19.50;45.66;101564.59;3584927;40;20036;-70
2021/07/10 00:11:17;;;;;;;7.55;5.75;;;;;;;19.45;45.89;101558.66;3595889;39;20096;-70
2021/07/10 00:13:46;;;;;;;7.25;6.20;;;;;;;19.45;45.88;101557.78;3598787;40;20059;-70
2021/07/10 00:16:15;;;;;;;6.65;5.65;;;;;;;19.44;45.61;101556.03;3595805;39;20144;-70
2021/07/10 00:18:43;;;;;;;7.13;5.03;;;;;;;19.42;45.64;101550.69;3587478;40;20055;-70
2021/07/10 00:21:12;;;;;;;7.47;5.80;;;;;;;19.41;46.11;101551.72;3590255;40;20048;-70
2021/07/10 00:23:40;;;;;;;6.13;5.25;;;;;;;19.39;45.94;101547.38;3599039;40;20047;-70
2021/07/10 00:26:09;;;;;;;7.78;5.78;;;;;;;19.38;45.76;101554.84;3595766;40;20044;-70
2021/07/10 00:28:38;;;;;;;6.25;5.20;;;;;;;19.35;45.94;101549.63;3595807;40;20088;-70
2021/07/10 00:31:06;;;;;;;7.65;5.72;;;;;;;19.34;46.04;101538.72;3596902;39;20044;-70
2021/07/10 00:33:34;;;;;;;7.30;5.68;;;;;;;19.32;45.50;101543.56;3596116;40;20091;-70
2021/07/10 00:36:03;;;;;;;8.32;5.38;;;;;;;19.30;45.92;101531.78;3591509;39;20044;-70
2021/07/10 00:38:31;;;;;;;8.27;5.60;;;;;;;19.29;45.59;101533.69;3592872;40;20128;-70
2021/07/10 00:41:00;;;;;;;7.85;5.53;;;;;;;19.29;45.74;101536.47;3598553;40;20041;-70
2021/07/10 00:43:30;;;;;;;7.07;5.93;;;;;;;19.29;46.14;101533.69;3595475;40;20052;-70
2021/07/10 00:45:58;;;;;;;6.70;5.28;;;;;;;19.26;46.08;101534.03;3595388;39;20036;-70
2021/07/10 00:48:26;;;;;;;7.35;5.53;;;;;;;19.25;46.29;101528.66;3594883;40;20332;-70
2021/07/10 00:50:54;;;;;;;7.50;5.80;;;;;;;19.24;46.09;101532.47;3592695;39;20431;-70
2021/07/10 00:53:22;;;;;;;6.95;5.20;;;;;;;19.22;46.21;101535.41;3589006;40;20229;-71
2021/07/10 00:55:51;;;;;;;7.40;5.28;;;;;;;19.20;46.23;101535.59;3598518;39;20052;-70
2021/07/10 00:58:19;;;;;;;6.90;5.13;;;;;;;19.18;46.35;101534.88;3596250;40;20058;-70
2021/07/10 01:00:49;;;;;;;7.30;5.63;;;;;;;19.19;46.25;101525.53;3598458;39;20080;-70
2021/07/10 01:03:18;;;;;;;7.68;5.63;;;;;;;19.15;46.33;101526.94;3598327;40;20044;-70
2021/07/10 01:05:46;;;;;;;7.55;5.40;;;;;;;19.13;46.17;101517.91;3594186;40;20139;-70
2021/07/10 01:08:14;;;;;;;7.18;5.53;;;;;;;19.13;45.91;101525.34;3598681;40;20080;-70
2021/07/10 01:10:43;;;;;;;7.60;5.40;;;;;;;19.11;46.16;101513.56;3597310;40;20080;-70
2021/07/10 01:13:11;;;;;;;7.40;5.47;;;;;;;19.11;45.84;101519.97;3597730;39;20032;-70
2021/07/10 01:15:39;;;;;;;6.68;5.35;;;;;;;19.09;45.71;101518.44;3594147;39;20080;-70
2021/07/10 01:18:09;;;;;;;8.35;5.72;;;;;;;19.10;46.10;101512.69;3593139;40;20056;-70
2021/07/10 01:20:45;;;;;;;8.27;5.70;;;;;;;19.11;46.05;101521.88;3594248;40;20129;-70
2021/07/10 01:23:13;;;;;;;6.72;5.03;;;;;;;19.06;46.20;101519.63;3598909;40;20036;-70
2021/07/10 01:25:42;;;;;;;7.68;5.93;;;;;;;19.05;46.11;101517.03;3592971;39;20080;-70
2021/07/10 01:28:11;;;;;;;7.85;5.60;;;;;;;19.04;46.17;101518.06;3597403;40;20028;-70
2021/07/10 01:30:39;;;;;;;6.95;5.35;;;;;;;19.02;45.96;101506.31;3588689;40;20043;-70
2021/07/10 01:33:09;;;;;;;8.90;6.40;;;;;;;19.02;46.10;101511.84;3592682;40;20051;-70
2021/07/10 01:35:38;;;;;;;7.32;5.55;;;;;;;19.00;46.10;101517.56;3596508;39;20036;-70
2021/07/10 01:38:11;;;;;;;7.22;5.70;;;;;;;19.01;46.54;101510.13;3586638;40;20055;-70
2021/07/10 01:40:39;;;;;;;7.75;5.60;;;;;;;18.97;46.47;101511.47;3593145;40;20391;-70
2021/07/10 01:43:07;;;;;;;7.72;5.70;;;;;;;18.96;46.00;101499.53;3592158;40;20469;-72
2021/07/10 01:45:41;;;;;;;6.93;5.20;;;;;;;18.93;46.02;101496.25;3595574;40;20406;-70
2021/07/10 01:48:12;;;;;;;7.13;5.72;;;;;;;18.94;46.20;101495.19;3597728;40;20063;-71
2021/07/10 01:50:41;;;;;;;6.68;5.68;;;;;;;18.93;46.21;101485.16;3584261;40;20052;-70
2021/07/10 01:53:13;;;;;;;7.93;5.57;;;;;;;18.93;46.40;101483.25;3597907;40;20302;-70
2021/07/10 01:55:41;;;;;;;6.93;5.70;;;;;;;18.89;46.27;101479.06;3587989;40;20044;-70
2021/07/10 01:58:10;;;;;;;6.07;5.07;;;;;;;18.89;46.41;101472.66;3589035;40;20342;-70
2021/07/10 02:00:41;;;;;;;8.05;5.82;;;;;;;18.88;45.93;101476.47;3583833;40;20060;-70
2021/07/10 02:03:09;;;;;;;8.45;5.95;;;;;;;18.84;46.11;101469.53;3597249;40;20306;-70
2021/07/10 02:05:37;;;;;;;7.85;5.53;;;;;;;18.81;46.29;101473.53;3589297;40;20060;-70
2021/07/10 02:08:08;;;;;;;7.18;5.32;;;;;;;18.80;46.45;101469.00;3596989;40;20099;-70
2021/07/10 02:10:38;;;;;;;8.68;5.88;;;;;;;18.79;46.46;101468.13;3589810;40;20051;-70
2021/07/10 02:13:10;;;;;;;10.55;5.82;;;;;;;18.78;46.54;101471.03;3591979;40;20037;-70
2021/07/10 02:15:39;;;;;;;7.95;5.20;;;;;;;18.76;46.21;101467.59;3581405;40;20041;-70
2021/07/10 02:18:08;;;;;;;8.10;5.95;;;;;;;18.74;46.74;101473.31;3588534;40;20028;-70
2021/07/10 02:20:37;;;;;;;7.30;5.78;;;;;;;18.72;46.17;101467.06;3591898;39;20048;-70
2021/07/10 02:23:06;;;;;;;7.50;5.82;;;;;;;18.71;46.21;101465.31;3597622;40;20052;-70
2021/07/10 02:25:34;;;;;;;8.20;6.18;;;;;;;18.70;46.18;101460.81;3597079;39;20044;-70
2021/07/10 02:28:04;;;;;;;9.30;6.68;;;;;;;18.71;46.75;101464.47;3597705;40;20111;-70
2021/07/10 02:30:34;;;;;;;8.38;6.53;;;;;;;18.70;46.75;101455.28;3591042;39;20033;-70
2021/07/10 02:33:05;;;;;;;8.80;6.97;;;;;;;18.69;46.47;101452.69;3590585;40;20040;-70
2021/07/10 02:35:35;;;;;;;8.27;6.53;;;;;;;18.64;46.25;101446.78;3596142;40;20323;-70
2021/07/10 02:38:05;;;;;;;8.20;6.53;;;;;;;18.65;46.45;101445.75;3589015;40;20044;-70
2021/07/10 02:40:34;;;;;;;8.93;6.50;;;;;;;18.62;46.00;101455.25;3595325;40;20051;-70
2021/07/10 02:43:05;;;;;;;8.50;6.82;;;;;;;18.63;46.17;101454.22;3594833;40;20040;-70
2021/07/10 02:45:33;;;;;;;10.07;6.45;;;;;;;18.58;45.88;101450.25;3594490;40;20052;-70
2021/07/10 02:48:03;;;;;;;11.38;7.15;;;;;;;18.58;46.08;101451.13;3578606;40;20059;-70
2021/07/10 02:50:31;;;;;;;8.60;6.28;;;;;;;18.53;46.03;101456.28;3592173;40;20288;-70
2021/07/10 02:53:01;;;;;;;7.97;6.03;;;;;;;18.52;46.43;101453.72;3597672;40;20048;-71
2021/07/10 02:55:30;;;;;;;7.25;6.07;;;;;;;18.50;46.50;101450.22;3583776;39;20058;-71
2021/07/10 02:57:58;;;;;;;8.18;6.13;;;;;;;18.47;46.67;101448.66;3596203;40;20358;-70
2021/07/10 03:00:29;;;;;;;9.63;6.95;;;;;;;18.48;46.34;101447.63;3597200;40;20036;-69
2021/07/10 03:02:58;;;;;;;7.95;6.25;;;;;;;18.44;46.10;101449.03;3588931;40;20044;-70
2021/07/10 03:05:27;;;;;;;9.15;6.65;;;;;;;18.42;46.54;101445.53;3593966;40;20072;-70
2021/07/10 03:07:55;;;;;;;8.45;6.50;;;;;;;18.41;46.50;101446.56;3596138;40;20033;-70
2021/07/10 03:10:27;;;;;;;9.77;6.78;;;;;;;18.39;46.56;101443.97;3597926;40;20048;-70
2021/07/10 03:12:56;;;;;;;9.32;6.80;;;;;;;18.36;46.65;101440.69;3596057;40;20036;-70
2021/07/10 03:15:25;;;;;;;9.82;6.40;;;;;;;18.36;46.81;101438.75;3574712;39;20037;-70
2021/07/10 03:17:55;;;;;;;9.27;6.63;;;;;;;18.37;46.86;101436.84;3587083;40;20051;-70
2021/07/10 03:20:26;;;;;;;9.23;6.82;;;;;;;18.35;46.73;101431.50;3593383;40;20048;-70
2021/07/10 03:22:55;;;;;;;10.13;7.47;;;;;;;18.31;46.52;101429.22;3595205;40;20908;-70
2021/07/10 03:25:23;;;;;;;8.18;6.32;;;;;;;18.31;46.83;101432.88;3586047;39;20639;-70
2021/07/10 03:27:53;;;;;;;9.40;7.22;;;;;;;18.31;46.42;101430.09;3595951;40;20052;-70
2021/07/10 03:30:22;;;;;;;8.70;6.53;;;;;;;18.30;46.63;101425.59;3586006;40;20048;-70
2021/07/10 03:32:51;;;;;;;9.02;6.97;;;;;;;18.28;46.03;101437.88;3588649;40;20076;-70
2021/07/10 03:35:21;;;;;;;8.18;6.40;;;;;;;18.27;46.81;101430.63;3592493;39;20381;-70
2021/07/10 03:37:51;;;;;;;8.45;6.40;;;;;;;18.24;46.70;101429.06;3591565;40;20044;-70
2021/07/10 03:40:22;;;;;;;7.97;6.30;;;;;;;18.24;46.90;101433.72;3598260;39;20040;-70
2021/07/10 03:42:53;;;;;;;7.82;6.55;;;;;;;18.21;46.88;101431.28;3598898;40;20055;-70
2021/07/10 03:45:21;;;;;;;8.82;6.28;;;;;;;18.19;46.80;101428.69;3597754;39;20064;-70
2021/07/10 03:47:50;;;;;;;9.65;6.75;;;;;;;18.18;46.55;101426.97;3591037;40;20052;-70
2021/07/10 03:50:19;;;;;;;7.85;6.47;;;;;;;18.20;46.98;101422.09;3592592;39;20044;-70
2021/07/10 03:52:49;;;;;;;9.25;6.28;;;;;;;18.20;46.85;101424.00;3596180;40;20044;-70
2021/07/10 03:55:17;;;;;;;8.48;6.45;;;;;;;18.18;46.54;101423.31;3587679;39;20378;-70
2021/07/10 03:57:46;;;;;;;9.35;6.88;;;;;;;18.17;47.06;101424.34;3598396;40;20403;-70
2021/07/10 04:00:16;;;;;;;9.10;6.03;;;;;;;18.18;46.56;101417.78;3590756;40;20622;-70
2021/07/10 04:02:45;;;;;;;9.55;7.22;;;;;;;18.18;47.04;101417.78;3596917;40;20349;-70
2021/07/10 04:05:13;;;;;;;9.05;6.47;;;;;;;18.16;47.06;101411.53;3580625;40;20036;-70
2021/07/10 04:07:42;;;;;;;8.23;6.68;;;;;;;18.16;46.50;101411.53;3599795;40;20121;-70
2021/07/10 04:10:13;;;;;;;9.43;6.70;;;;;;;18.18;46.40;101409.47;3591084;39;20048;-70
2021/07/10 04:12:42;;;;;;;10.45;6.97;;;;;;;18.15;47.14;101407.03;3594154;40;20052;-70
2021/07/10 04:15:15;;;;;;;8.48;6.22;;;;;;;18.13;46.56;101409.09;3581634;40;20045;-70
2021/07/10 04:17:43;;;;;;;8.57;6.28;;;;;;;18.13;46.99;101411.88;3593690;40;20129;-70
2021/07/10 04:20:14;;;;;;;10.23;7.10;;;;;;;18.12;47.21;101412.91;3589288;40;20040;-70
2021/07/10 04:22:43;;;;;;;8.35;6.25;;;;;;;18.09;46.96;101414.13;3586757;40;20141;-70
2021/07/10 04:25:19;;;;;;;10.10;6.53;;;;;;;18.07;47.51;101413.41;3582988;40;20121;-71
2021/07/10 04:27:53;;;;;;;7.75;6.13;;;;;;;18.05;47.58;101412.72;3597794;40;20067;-70
2021/07/10 04:30:41;;;;;;;8.20;5.63;;;;;;;18.03;47.50;101406.47;3594556;40;20044;-70
2021/07/10 04:33:29;;;;;;;7.25;5.93;;;;;;;18.03;47.17;101398.16;3595700;40;20040;-71
2021/07/10 04:36:17;;;;;;;8.48;6.25;;;;;;;18.04;47.08;101397.13;3592920;40;20048;-71
2021/07/10 04:39:05;;;;;;;8.75;6.00;;;;;;;18.04;47.29;101399.91;3591066;39;20401;-71
2021/07/10 04:41:54;;;;;;;8.40;5.97;;;;;;;18.06;47.20;101400.59;3591627;40;20044;-70
2021/07/10 04:44:42;;;;;;;8.38;6.32;;;;;;;18.05;47.70;101402.50;3594011;39;20040;-71
2021/07/10 04:47:30;;;;;;;8.60;6.65;;;;;;;18.06;47.43;101408.91;3576905;40;20433;-71
2021/07/10 04:50:18;;;;;;;7.60;5.88;;;;;;;18.06;47.95;101409.78;3575490;40;20041;-70
2021/07/10 04:53:06;;;;;;;7.55;5.90;;;;;;;18.08;47.92;101417.94;3584077;40;20173;-70
2021/07/10 04:55:54;;;;;;;8.23;6.00;;;;;;;18.09;47.72;101414.13;3592152;40;20040;-71
2021/07/10 04:58:44;;;;;;;9.88;6.18;;;;;;;18.12;48.17;101415.66;3594161;40;20431;-69
2021/07/10 05:01:32;;;;;;;7.78;5.78;;;;;;;18.11;47.80;101417.59;3523473;40;20035;-71
2021/07/10 05:04:20;;;;;;;8.65;6.75;;;;;;;18.11;48.14;101409.28;3593607;40;20376;-71
2021/07/10 05:07:08;;;;;;;7.53;5.88;;;;;;;18.12;47.75;101412.91;3591801;40;20052;-71
2021/07/10 05:09:56;;;;;;;8.15;6.20;;;;;;;18.12;48.36;101415.66;3568815;40;20040;-71
2021/07/10 05:12:45;;;;;;;8.45;6.25;;;;;;;18.12;48.13;101405.47;3581263;40;20044;-71
2021/07/10 05:15:34;;;;;;;6.80;5.78;;;;;;;18.14;47.75;101410.84;3591681;40;20167;-71
2021/07/10 05:18:22;;;;;;;8.57;5.90;;;;;;;18.12;47.83;101407.38;3582039;40;20051;-71
2021/07/10 05:21:10;;;;;;;8.00;6.00;;;;;;;18.12;48.06;101412.91;3597665;39;20384;-71
2021/07/10 05:23:58;;;;;;;6.85;5.43;;;;;;;18.13;48.38;101414.63;3598597;40;20408;-71
2021/07/10 05:26:46;;;;;;;7.90;5.95;;;;;;;18.13;48.51;101409.09;3593152;40;20315;-71
2021/07/10 05:29:35;;;;;;;8.20;6.15;;;;;;;18.15;48.57;101412.56;3588250;40;20048;-70
2021/07/10 05:32:24;;;;;;;8.73;6.20;;;;;;;18.18;48.70;101413.13;3588249;40;20052;-70
2021/07/10 05:35:15;;;;;;;7.82;5.95;;;;;;;18.19;48.89;101405.69;3596479;39;20036;-71
2021/07/10 05:38:03;;;;;;;7.75;6.13;;;;;;;18.21;48.81;101406.34;3586527;40;20036;-71
2021/07/10 05:40:51;;;;;;;7.82;5.97;;;;;;;18.22;48.56;101403.41;3594088;40;20047;-71
2021/07/10 05:43:39;;;;;;;7.07;5.53;;;;;;;18.24;48.78;101409.66;3596158;40;20105;-71
2021/07/10 05:46:27;;;;;;;9.20;6.35;;;;;;;18.27;49.07;101403.78;3590941;40;20048;-71
2021/07/10 05:49:16;;;;;;;8.43;5.75;;;;;;;18.32;48.55;101401.38;3592419;39;20040;-71
2021/07/10 05:51:44;;;;;;;7.93;6.10;;;;;;;18.33;49.04;101403.09;3589227;40;20150;-71
2021/07/10 05:54:12;;;;;;;9.13;6.60;;;;;;;18.36;48.98;101402.75;3596728;40;20410;-72
2021/07/10 05:56:45;;;;;;;8.93;6.70;;;;;;;18.39;48.86;101396.00;3591422;40;20060;-69
2021/07/10 05:59:23;;;;;;;7.10;5.65;;;;;;;18.40;48.48;101400.53;3594148;39;20580;-71
2021/07/10 06:01:51;;;;;;;8.38;6.13;;;;;;;18.43;49.21;101403.84;3592533;40;20547;-71
2021/07/10 06:04:20;;;;;;;8.75;6.00;;;;;;;18.48;49.29;101399.66;3594077;39;20496;-71
2021/07/10 06:06:49;;;;;;;8.65;6.15;;;;;;;18.49;49.17;101395.84;3590110;40;20064;-72
2021/07/10 06:09:18;;;;;;;8.20;6.63;;;;;;;18.51;49.42;101396.56;3581285;39;20035;-72
2021/07/10 06:11:46;;;;;;;7.60;5.82;;;;;;;18.53;48.82;101392.56;3596085;40;20610;-71
2021/07/10 06:14:14;;;;;;;9.38;6.68;;;;;;;18.56;49.38;101394.13;3591577;39;20123;-71
2021/07/10 06:16:45;;;;;;;10.13;6.72;;;;;;;18.58;49.22;101394.84;3596957;39;20124;-72
2021/07/10 06:19:14;;;;;;;8.27;6.53;;;;;;;18.61;49.01;101392.56;3595231;39;20051;-70
2021/07/10 06:21:43;;;;;;;9.40;6.47;;;;;;;18.65;49.44;101391.19;3595956;40;20402;-70
2021/07/10 06:24:12;;;;;;;7.85;6.20;;;;;;;18.66;49.12;101389.28;3591643;39;20311;-71
2021/07/10 06:26:40;;;;;;;8.65;6.88;;;;;;;18.68;49.28;101401.94;3593719;40;20089;-72
2021/07/10 06:29:09;;;;;;;8.88;6.45;;;;;;;18.72;49.06;101397.78;3593658;39;20051;-71
2021/07/10 06:31:37;;;;;;;8.50;6.82;;;;;;;18.74;49.70;101405.94;3589044;40;20339;-72
2021/07/10 06:34:06;;;;;;;9.27;7.30;;;;;;;18.78;49.93;101401.75;3592593;40;20047;-72
2021/07/10 06:36:36;;;;;;;9.65;7.55;;;;;;;18.80;50.05;101397.81;3588931;40;20628;-72
2021/07/10 06:39:06;;;;;;;9.40;7.45;;;;;;;18.87;49.33;101403.53;3594643;40;20556;-72
2021/07/10 06:41:36;;;;;;;9.20;7.38;;;;;;;18.88;49.68;101407.16;3598424;40;20040;-72
2021/07/10 06:44:05;;;;;;;9.15;6.93;;;;;;;18.91;49.68;101404.06;3579211;40;20085;-71
2021/07/10 06:46:34;;;;;;;9.75;7.28;;;;;;;18.93;49.72;101400.06;3589414;39;20044;-72
2021/07/10 06:49:03;;;;;;;9.05;7.57;;;;;;;18.96;49.63;101394.16;3592437;40;20044;-71
2021/07/10 06:51:31;;;;;;;10.32;7.60;;;;;;;19.01;49.96;101393.66;3566927;40;20041;-72
2021/07/10 06:53:59;;;;;;;10.68;7.72;;;;;;;19.04;49.77;101387.75;3589864;39;20047;-68
2021/07/10 06:56:30;;;;;;;9.77;7.43;;;;;;;19.09;49.54;101397.28;3589085;40;20032;-66
2021/07/10 06:58:58;;;;;;;10.38;8.02;;;;;;;19.11;49.79;101395.19;3595973;40;20032;-73
2021/07/10 07:01:27;;;;;;;11.40;8.40;;;;;;;19.15;49.69;101395.72;3587637;40;20044;-67
2021/07/10 07:03:56;;;;;;;12.63;9.40;;;;;;;19.18;49.82;101400.91;3578877;40;20025;-67
2021/07/10 07:06:25;;;;;;;12.15;8.60;;;;;;;19.18;49.50;101390.66;3582628;40;20035;-68
2021/07/10 07:08:56;;;;;;;12.25;9.35;;;;;;;19.21;49.90;101395.00;3588914;40;20303;-68
2021/07/10 07:11:24;;;;;;;13.77;9.45;;;;;;;19.24;49.89;101397.44;3598833;39;20060;-67
2021/07/10 07:13:54;;;;;;;13.77;10.40;;;;;;;19.29;49.86;101394.13;3599780;40;20036;-68
2021/07/10 07:16:22;;;;;;;12.38;9.75;;;;;;;19.30;49.49;101393.94;3590940;40;20423;-68
2021/07/10 07:18:52;;;;;;;13.10;9.88;;;;;;;19.33;50.08;101399.16;3589619;40;20095;-67
2021/07/10 07:21:20;;;;;;;13.57;10.15;;;;;;;19.37;50.07;101396.88;3595882;40;20048;-67
2021/07/10 07:23:49;;;;;;;14.35;10.40;;;;;;;19.39;50.05;101398.44;3595845;39;20353;-66
2021/07/10 07:26:19;;;;;;;11.68;9.35;;;;;;;19.42;49.74;101389.78;3597045;39;20048;-67
2021/07/10 07:28:47;;;;;;;12.20;9.65;;;;;;;19.45;49.73;101388.53;3593603;40;20115;-69
2021/07/10 07:31:17;;;;;;;14.07;10.02;;;;;;;19.49;49.77;101389.91;3589455;39;20040;-67
2021/07/10 07:33:46;;;;;;;13.32;10.13;;;;;;;19.51;49.54;101382.31;3595513;40;20056;-67
2021/07/10 07:36:14;;;;;;;13.02;9.48;;;;;;;19.55;50.29;101386.44;3598834;40;20265;-67
2021/07/10 07:38:42;;;;;;;12.20;9.23;;;;;;;19.61;50.48;101380.19;3594888;40;20036;-68
2021/07/10 07:41:11;;;;;;;11.20;9.13;;;;;;;19.67;50.63;101376.72;3589235;39;20040;-67
2021/07/10 07:43:39;;;;;;;13.45;10.05;;;;;;;19.75;50.28;101381.34;3589688;40;20044;-67
2021/07/10 07:46:07;;;;;;;12.50;8.40;;;;;;;19.83;50.72;101384.97;3597412;40;20070;-67
2021/07/10 07:48:37;;;;;;;10.93;8.70;;;;;;;19.94;50.60;101386.44;3590406;40;20025;-68
2021/07/10 07:51:05;;;;;;;12.80;9.88;;;;;;;20.03;50.47;101387.28;3589321;40;20052;-68
2021/07/10 07:53:33;;;;;;;11.25;7.53;;;;;;;20.13;49.86;101386.00;3589910;40;20077;-67
2021/07/10 07:56:01;;;;;;;11.93;8.65;;;;;;;20.22;50.40;101382.19;3588344;40;20044;-70
2021/07/10 07:58:30;;;;;;;10.07;7.53;;;;;;;20.34;49.90;101385.38;3589581;40;20033;-68
2021/07/10 08:00:58;;;;;;;10.75;8.40;;;;;;;20.45;49.78;101378.53;3588893;40;20036;-68
2021/07/10 08:03:38;;;;;;;11.23;7.78;;;;;;;20.56;49.70;101383.69;3581139;40;20033;-68
2021/07/10 08:06:06;;;;;;;10.90;8.52;;;;;;;20.64;49.43;101384.50;3590790;40;20064;-68
2021/07/10 08:08:36;;;;;;;9.35;6.68;;;;;;;20.71;49.10;101370.69;3599648;40;20043;-68
2021/07/10 08:11:05;;;;;;;8.70;6.57;;;;;;;20.79;48.66;101373.41;3592348;39;20292;-68
2021/07/10 08:13:34;;;;;;;7.55;5.85;;;;;;;20.87;48.57;101370.56;3589702;40;20033;-68
2021/07/10 08:16:04;;;;;;;8.15;5.82;;;;;;;20.94;48.10;101367.91;3591017;40;20039;-67
2021/07/10 08:18:32;;;;;;;7.82;5.15;;;;;;;21.00;48.03;101361.59;3597698;40;20052;-68
2021/07/10 08:21:02;;;;;;;6.78;4.93;;;;;;;21.08;47.49;101367.94;3598471;40;20084;-68
2021/07/10 08:23:30;;;;;;;8.20;6.00;;;;;;;21.11;47.71;101361.13;3598075;39;20067;-66
2021/07/10 08:25:59;;;;;;;5.78;4.75;;;;;;;21.18;47.56;101364.03;3592439;39;20050;-66
2021/07/10 08:28:27;;;;;;;5.68;4.35;;;;;;;21.24;47.61;101363.28;3596444;39;20090;-67
2021/07/10 08:30:55;;;;;;;6.18;4.70;;;;;;;21.30;47.26;101357.81;3591756;40;20422;-68
2021/07/10 08:33:23;;;;;;;6.95;4.72;;;;;;;21.36;46.85;101358.97;3595736;40;20036;-67
2021/07/10 08:35:51;;;;;;;6.25;4.40;;;;;;;21.42;46.30;101349.84;3587641;40;20323;-66
2021/07/10 08:38:21;;;;;;;5.82;3.92;;;;;;;21.49;46.32;101347.16;3585060;40;20402;-67
2021/07/10 08:40:51;;;;;;;6.60;4.40;;;;;;;21.53;46.25;101346.56;3596317;39;20052;-70
2021/07/10 08:43:20;;;;;;;6.78;4.25;;;;;;;21.55;46.13;101341.69;3594627;39;20052;-67
2021/07/10 08:45:49;;;;;;;6.10;4.38;;;;;;;21.60;45.47;101339.22;3579179;40;20055;-65
2021/07/10 08:48:18;;;;;;;5.78;4.25;;;;;;;21.62;45.38;101331.53;3592973;40;20052;-66
2021/07/10 08:50:46;;;;;;;6.50;4.88;;;;;;;21.64;45.79;101342.50;3589418;40;20056;-66
2021/07/10 08:53:15;;;;;;;7.72;5.22;;;;;;;21.66;45.35;101340.34;3596119;40;20049;-66
2021/07/10 08:55:50;;;;;;;7.50;5.63;;;;;;;21.71;45.21;101335.94;3598028;39;20040;-66
2021/07/10 08:58:18;;;;;;;7.15;5.80;;;;;;;21.70;45.42;101334.22;3593986;40;20392;-67
2021/07/10 09:00:47;;;;;;;7.30;5.65;;;;;;;21.74;45.61;101334.66;3590822;40;20040;-66
2021/07/10 09:03:16;;;;;;;8.20;6.30;;;;;;;21.75;44.82;101337.25;3597822;39;20602;-67
2021/07/10 09:05:45;;;;;;;7.47;5.90;;;;;;;21.75;44.84;101333.63;3602009;39;20040;-68
2021/07/10 09:08:17;;;;;;;7.35;5.32;;;;;;;21.76;45.03;101336.22;3597752;40;20422;-66
2021/07/10 09:10:49;;;;;;;6.75;5.43;;;;;;;21.77;44.65;101335.16;3597284;40;20315;-67
2021/07/10 09:13:19;;;;;;;7.65;5.50;;;;;;;21.78;44.97;101341.59;3598706;40;20028;-69
2021/07/10 09:15:47;;;;;;;7.32;4.72;;;;;;;21.80;44.73;101332.00;3596242;40;20403;-66
2021/07/10 09:18:17;;;;;;;8.77;5.22;;;;;;;21.82;44.78;101332.63;3595126;39;20056;-67
2021/07/10 09:20:48;;;;;;;6.57;4.38;;;;;;;21.83;44.47;101334.38;3591905;39;20036;-66
2021/07/10 09:23:26;;;;;;;6.05;4.82;;;;;;;21.87;43.75;101331.22;3597168;40;20047;-66
2021/07/10 09:26:13;;;;;;;6.07;4.70;;;;;;;21.86;44.19;101323.91;3594119;40;20058;-67
2021/07/10 09:28:42;;;;;;;6.18;4.65;;;;;;;21.86;44.55;101319.19;3594608;40;20071;-66
2021/07/10 09:31:15;;;;;;;7.00;4.13;;;;;;;21.92;44.26;101315.63;3596107;40;20056;-66
2021/07/10 09:33:44;;;;;;;6.40;4.50;;;;;;;21.91;44.39;101310.25;3597159;39;20040;-66
2021/07/10 09:36:13;;;;;;;6.38;4.82;;;;;;;21.93;44.48;101311.78;3591956;40;20125;-67
2021/07/10 09:38:44;;;;;;;6.75;4.97;;;;;;;21.98;43.83;101317.66;3595218;40;20403;-67
2021/07/10 09:41:14;;;;;;;6.63;5.18;;;;;;;21.99;43.77;101310.13;3595060;40;20037;-66
2021/07/10 09:43:42;;;;;;;6.53;4.50;;;;;;;21.98;44.05;101312.06;3598258;40;20048;-66
2021/07/10 09:46:25;;;;;;;8.05;4.25;;;;;;;22.03;43.42;101314.25;3597079;39;20047;-66
2021/07/10 09:48:53;;;;;;;6.25;4.05;;;;;;;22.01;43.88;101316.38;3589785;40;20096;-66
2021/07/10 09:51:24;;;;;;;6.13;3.83;;;;;;;22.07;43.89;101315.56;3580403;40;20087;-66
2021/07/10 09:54:02;;;;;;;5.25;3.80;;;;;;;22.10;43.36;101313.28;3599591;40;20042;-68
2021/07/10 09:56:34;;;;;;;5.82;4.25;;;;;;;22.10;43.35;101320.75;3598914;40;20088;-65
2021/07/10 09:59:18;;;;;;;5.95;4.20;;;;;;;22.12;43.36;101315.88;3599153;40;20040;-66
2021/07/10 10:01:47;;;;;;;8.32;4.60;;;;;;;22.11;43.44;101309.44;3599144;40;20098;-65
2021/07/10 10:04:25;;;;;;;6.25;4.78;;;;;;;22.15;42.72;101305.16;3599064;39;20043;-66
2021/07/10 10:06:54;;;;;;;6.22;4.30;;;;;;;22.13;43.25;101304.53;3592390;40;20025;-65
2021/07/10 10:09:24;;;;;;;5.82;4.28;;;;;;;22.16;43.13;101303.25;3588598;40;20427;-66
2021/07/10 10:12:00;;;;;;;7.35;4.47;;;;;;;22.18;42.54;101301.13;3589820;40;20036;-66
2021/07/10 10:14:31;;;;;;;5.72;4.00;;;;;;;22.15;42.96;101302.38;3588450;40;20037;-64
2021/07/10 10:17:00;;;;;;;4.75;3.42;;;;;;;22.18;42.61;101301.13;3589234;40;20036;-65
2021/07/10 10:19:32;;;;;;;6.72;4.95;;;;;;;22.18;42.03;101290.00;3588451;40;20045;-64
2021/07/10 10:22:04;;;;;;;6.47;4.22;;;;;;;22.18;42.31;101295.56;3580385;40;20044;-66
2021/07/10 10:27:30;;;;;;;5.18;3.83;;;;;;;22.16;41.90;101304.13;3595762;40;20593;-68
2021/07/10 10:29:58;;;;;;;6.50;4.47;;;;;;;22.15;41.89;101293.16;3596339;39;20044;-67
2021/07/10 10:32:29;;;;;;;5.78;4.32;;;;;;;22.16;42.19;101289.31;3594519;39;20365;-67
2021/07/10 10:34:57;;;;;;;5.82;4.00;;;;;;;22.15;41.95;101284.81;3593482;40;20039;-67
2021/07/10 10:37:26;;;;;;;6.93;4.22;;;;;;;22.14;42.07;101286.75;3595036;39;20358;-68
2021/07/10 10:39:54;;;;;;;4.78;3.45;;;;;;;22.16;42.31;101279.03;3594164;40;20058;-68
2021/07/10 10:42:26;;;;;;;5.47;3.78;;;;;;;22.19;42.43;101277.78;3595392;40;20441;-69
2021/07/10 10:45:00;;;;;;;6.95;4.95;;;;;;;22.21;42.04;101285.97;3594965;39;20391;-68
2021/07/10 10:47:40;;;;;;;6.90;4.78;;;;;;;22.24;41.34;101280.84;3592824;40;20181;-67
2021/07/10 10:50:18;;;;;;;5.72;4.13;;;;;;;22.24;41.57;101280.84;3588864;39;20955;-68
2021/07/10 10:52:46;;;;;;;7.10;4.47;;;;;;;22.22;42.10;101271.84;3594711;40;20399;-70
2021/07/10 10:55:17;;;;;;;5.70;4.35;;;;;;;22.27;41.62;101268.47;3594321;39;20052;-70
2021/07/10 10:57:53;;;;;;;6.45;4.28;;;;;;;22.26;41.02;101264.81;3594772;40;20133;-68
2021/07/10 11:00:35;;;;;;;5.45;3.95;;;;;;;22.30;41.48;101259.72;3593680;39;20044;-68
2021/07/10 11:03:09;;;;;;;6.72;4.13;;;;;;;22.31;41.38;101255.88;3594617;40;20446;-68
2021/07/10 11:05:40;;;;;;;5.65;3.80;;;;;;;22.32;41.94;101258.44;3593020;39;20132;-69
2021/07/10 11:08:35;;;;;;;6.78;4.25;;;;;;;22.33;41.32;101246.22;3596203;40;20055;-69
2021/07/10 11:11:27;;;;;;;5.10;3.60;;;;;;;22.36;41.63;101242.19;3583749;40;20470;-69
2021/07/10 11:14:02;;;;;;;5.53;3.88;;;;;;;22.38;41.42;101238.13;3592257;40;20488;-69
2021/07/10 11:16:32;;;;;;;5.50;4.13;;;;;;;22.43;41.56;101240.31;3595799;40;20048;-70
2021/07/10 11:19:03;;;;;;;6.13;4.35;;;;;;;22.45;41.31;101239.06;3593214;39;20132;-69
2021/07/10 11:21:48;;;;;;;7.13;4.10;;;;;;;22.49;40.41;101236.69;3593672;39;20061;-68
2021/07/10 11:24:21;;;;;;;4.47;3.67;;;;;;;22.50;40.62;101236.50;3591799;39;20051;-69
2021/07/10 11:27:24;;;;;;;6.75;4.60;;;;;;;22.50;40.34;101236.50;3592881;40;20119;-68
2021/07/10 11:30:20;;;;;;;5.28;3.85;;;;;;;22.50;40.50;101227.28;3592332;40;20041;-68
2021/07/10 11:32:50;;;;;;;5.75;3.58;;;;;;;22.53;40.90;101227.75;3596798;40;20099;-68
2021/07/10 11:35:35;;;;;;;6.18;3.80;;;;;;;22.56;40.19;101221.75;3595311;40;20043;-68
2021/07/10 11:38:04;;;;;;;5.25;3.88;;;;;;;22.55;40.81;101214.47;3596415;40;20423;-69
2021/07/10 11:40:40;;;;;;;4.68;3.60;;;;;;;22.61;39.80;101217.50;3593936;39;20384;-68
2021/07/10 11:43:11;;;;;;;4.50;3.67;;;;;;;22.62;40.11;101211.72;3593826;40;20471;-68
2021/07/10 11:45:50;;;;;;;5.55;3.75;;;;;;;22.63;40.12;101210.66;3590723;39;20445;-67
2021/07/10 11:48:34;;;;;;;4.18;3.10;;;;;;;22.64;40.48;101201.25;3594927;39;20059;-66
2021/07/10 11:51:10;;;;;;;4.43;3.35;;;;;;;22.70;39.74;101200.41;3594065;39;20044;-67